Time;durP1;ratioP1;P1;durP2;ratioP2;P2;SDS_P1;SDS_P2;PMS_P1;PMS_P2;Temp;Humidity;BMP_temperature;BMP_pressure;BME280_temperature;BME280_humidity;BME280_pressure;Samples;Min_cycle;Max_cycle;Signal;HPM_P1;HPM_P2
2023/07/26 00:00:13;;;;;;;;;;;14.30;99.90;;;;;;7321616;19;10358;-82
2023/07/26 00:02:42;;;;;;;;;;;14.30;99.90;;;;;;7322510;19;9531;-82
2023/07/26 00:05:11;;;;;;;;;;;14.20;99.90;;;;;;7323219;19;9170;-82
2023/07/26 00:07:40;;;;;;;;;;;14.20;99.90;;;;;;7320022;19;9585;-82
2023/07/26 00:10:10;;;;;;;;;;;14.10;99.90;;;;;;7307730;19;9442;-82
2023/07/26 00:12:39;;;;;;;;;;;14.00;99.90;;;;;;7298469;19;9267;-82
2023/07/26 00:15:12;;;;;;;;;;;13.90;99.90;;;;;;7323907;19;9221;-82
2023/07/26 00:17:40;;;;;;;;;;;13.80;99.90;;;;;;7322103;19;9282;-82
2023/07/26 00:20:11;;;;;;;;;;;13.70;99.90;;;;;;7320835;19;9462;-82
2023/07/26 00:22:40;;;;;;;;;;;13.70;99.90;;;;;;7330334;19;9470;-82
2023/07/26 00:25:10;;;;;;;;;;;13.70;99.90;;;;;;7335714;19;9442;-83
2023/07/26 00:27:38;;;;;;;;;;;13.80;99.90;;;;;;7330172;19;9462;-82
2023/07/26 00:30:12;;;;;;;;;;;13.80;99.90;;;;;;7328841;19;9467;-82
2023/07/26 00:32:40;;;;;;;;;;;13.70;99.90;;;;;;7328729;19;9200;-82
2023/07/26 00:35:10;;;;;;;;;;;13.70;99.90;;;;;;7330868;19;9192;-82
2023/07/26 00:37:39;;;;;;;;;;;13.60;99.90;;;;;;7328552;19;10976;-82
2023/07/26 00:40:09;;;;;;;;;;;13.60;99.90;;;;;;7332176;19;9327;-82
2023/07/26 00:42:38;;;;;;;;;;;13.60;99.90;;;;;;7324124;19;9294;-82
2023/07/26 00:45:08;;;;;;;;;;;13.60;99.90;;;;;;7325998;19;9503;-82
2023/07/26 00:47:40;;;;;;;;;;;13.60;99.90;;;;;;7318272;19;9290;-82
2023/07/26 00:50:11;;;;;;;;;;;13.60;99.90;;;;;;7294337;19;9438;-82
2023/07/26 00:52:41;;;;;;;;;;;13.70;99.90;;;;;;7323032;19;11170;-82
2023/07/26 00:55:12;;;;;;;;;;;13.80;99.90;;;;;;7323569;19;9605;-82
2023/07/26 00:57:41;;;;;;;;;;;13.80;99.90;;;;;;7324458;19;9467;-82
2023/07/26 01:00:11;;;;;;;;;;;13.80;99.90;;;;;;7322303;19;9004;-82
2023/07/26 01:02:43;;;;;;;;;;;13.80;99.90;;;;;;7325383;19;8944;-82
2023/07/26 01:05:12;;;;;;;;;;;13.70;99.90;;;;;;7324484;19;9299;-82
2023/07/26 01:07:53;;;;;;;;;;;13.70;99.90;;;;;;7326820;19;9350;-82
2023/07/26 01:10:31;;;;;;;;;;;13.60;99.90;;;;;;7326217;19;9140;-82
2023/07/26 01:13:14;;;;;;;;;;;13.70;99.90;;;;;;7327028;19;9197;-82
2023/07/26 01:15:47;;;;;;;;;;;13.60;99.90;;;;;;7323242;19;9282;-82
2023/07/26 01:18:20;;;;;;;;;;;13.70;99.90;;;;;;7324967;19;9249;-81
2023/07/26 01:20:49;;;;;;;;;;;13.60;99.90;;;;;;7327212;19;9284;-82
2023/07/26 01:23:21;;;;;;;;;;;13.70;99.90;;;;;;7326110;19;9221;-82
2023/07/26 01:25:50;;;;;;;;;;;13.70;99.90;;;;;;7327021;19;9471;-82
2023/07/26 01:28:19;;;;;;;;;;;13.60;99.90;;;;;;7326639;19;10378;-82
2023/07/26 01:30:51;;;;;;;;;;;13.70;99.90;;;;;;7323999;19;9264;-83
2023/07/26 01:33:22;;;;;;;;;;;13.60;99.90;;;;;;7326352;19;9225;-82
2023/07/26 01:35:53;;;;;;;;;;;13.60;99.90;;;;;;7327908;19;9212;-82
2023/07/26 01:38:27;;;;;;;;;;;13.50;99.90;;;;;;7326897;19;11282;-82
2023/07/26 01:40:58;;;;;;;;;;;13.50;99.90;;;;;;7325237;19;9246;-82
2023/07/26 01:43:27;;;;;;;;;;;13.50;99.90;;;;;;7327013;19;10378;-82
2023/07/26 01:45:56;;;;;;;;;;;13.60;99.90;;;;;;7325632;19;9417;-82
2023/07/26 01:48:25;;;;;;;;;;;13.60;99.90;;;;;;7326854;19;9245;-82
2023/07/26 01:50:54;;;;;;;;;;;13.60;99.90;;;;;;7324995;19;9427;-82
2023/07/26 01:53:26;;;;;;;;;;;13.50;99.90;;;;;;7326042;19;9461;-82
2023/07/26 01:55:55;;;;;;;;;;;13.60;99.90;;;;;;7324421;19;9526;-83
2023/07/26 01:58:23;;;;;;;;;;;13.50;99.90;;;;;;7324985;19;9190;-82
2023/07/26 02:00:52;;;;;;;;;;;13.40;99.90;;;;;;7324680;19;10917;-82
2023/07/26 02:03:21;;;;;;;;;;;13.40;99.90;;;;;;7326687;19;9128;-82
2023/07/26 02:05:51;;;;;;;;;;;13.40;99.90;;;;;;7325247;19;9016;-82
2023/07/26 02:08:21;;;;;;;;;;;13.50;99.90;;;;;;7324112;19;9175;-82
2023/07/26 02:10:52;;;;;;;;;;;13.50;99.90;;;;;;7324154;19;9182;-82
2023/07/26 02:13:21;;;;;;;;;;;13.50;99.90;;;;;;7326168;19;8944;-83
2023/07/26 02:15:50;;;;;;;;;;;13.50;99.90;;;;;;7324365;19;10168;-82
2023/07/26 02:18:19;;;;;;;;;;;13.60;99.90;;;;;;7325535;19;9132;-83
2023/07/26 02:20:48;;;;;;;;;;;13.60;99.90;;;;;;7324773;19;9331;-82
2023/07/26 02:23:18;;;;;;;;;;;13.70;99.90;;;;;;7324191;19;10378;-82
2023/07/26 02:25:47;;;;;;;;;;;13.80;99.90;;;;;;7325430;19;9142;-82
2023/07/26 02:28:19;;;;;;;;;;;13.80;99.90;;;;;;7326136;19;9432;-82
2023/07/26 02:30:48;;;;;;;;;;;13.90;99.90;;;;;;7324037;19;9470;-82
2023/07/26 02:33:17;;;;;;;;;;;13.90;99.90;;;;;;7329057;19;9540;-82
2023/07/26 02:35:46;;;;;;;;;;;13.80;99.90;;;;;;7328008;19;9224;-82
2023/07/26 02:38:15;;;;;;;;;;;13.60;99.90;;;;;;7326362;19;9171;-82
2023/07/26 02:40:43;;;;;;;;;;;13.40;99.90;;;;;;7324719;19;9425;-82
2023/07/26 02:43:12;;;;;;;;;;;13.40;99.90;;;;;;7324368;19;9209;-83
2023/07/26 02:45:45;;;;;;;;;;;13.40;99.90;;;;;;7321519;19;9468;-82
2023/07/26 02:48:14;;;;;;;;;;;13.50;99.90;;;;;;7325626;19;9506;-82
2023/07/26 02:50:42;;;;;;;;;;;13.50;99.90;;;;;;7324219;19;9000;-82
2023/07/26 02:53:11;;;;;;;;;;;13.50;99.90;;;;;;7325187;19;9218;-82
2023/07/26 02:55:43;;;;;;;;;;;13.50;99.90;;;;;;7324193;19;9489;-83
2023/07/26 02:58:13;;;;;;;;;;;13.40;99.90;;;;;;7322108;19;9121;-82
2023/07/26 03:00:44;;;;;;;;;;;13.30;99.90;;;;;;7324113;19;9229;-82
2023/07/26 03:03:13;;;;;;;;;;;13.20;99.90;;;;;;7323666;19;9167;-82
2023/07/26 03:05:42;;;;;;;;;;;13.20;99.90;;;;;;7323939;19;9305;-82
2023/07/26 03:08:11;;;;;;;;;;;13.20;99.90;;;;;;7325636;19;9457;-82
2023/07/26 03:10:40;;;;;;;;;;;13.30;99.90;;;;;;7323856;19;9094;-83
2023/07/26 03:13:09;;;;;;;;;;;13.40;99.90;;;;;;7322414;19;9210;-82
2023/07/26 03:15:44;;;;;;;;;;;13.30;99.90;;;;;;7322832;19;10429;-82
2023/07/26 03:18:13;;;;;;;;;;;13.50;99.90;;;;;;7324234;19;9529;-82
2023/07/26 03:20:46;;;;;;;;;;;13.40;99.90;;;;;;7323623;19;9624;-82
2023/07/26 03:23:15;;;;;;;;;;;13.40;99.90;;;;;;7322411;19;9183;-82
2023/07/26 03:25:45;;;;;;;;;;;13.40;99.90;;;;;;7322720;19;9255;-82
2023/07/26 03:28:14;;;;;;;;;;;13.30;99.90;;;;;;7322781;19;9225;-82
2023/07/26 03:30:46;;;;;;;;;;;13.30;99.90;;;;;;7323154;19;9194;-82
2023/07/26 03:33:15;;;;;;;;;;;13.20;99.90;;;;;;7325115;19;9491;-82
2023/07/26 03:35:44;;;;;;;;;;;13.20;99.90;;;;;;7320583;19;9992;-82
2023/07/26 03:38:13;;;;;;;;;;;13.20;99.90;;;;;;7323956;19;9181;-82
2023/07/26 03:40:42;;;;;;;;;;;13.20;99.90;;;;;;7324056;19;9592;-82
2023/07/26 03:43:11;;;;;;;;;;;13.20;99.90;;;;;;7321980;19;9249;-83
2023/07/26 03:45:40;;;;;;;;;;;13.30;99.90;;;;;;7321819;19;9223;-82
2023/07/26 03:48:12;;;;;;;;;;;13.30;99.90;;;;;;7321071;19;9194;-81
2023/07/26 03:50:41;;;;;;;;;;;13.40;99.90;;;;;;7322804;19;9255;-82
2023/07/26 03:53:09;;;;;;;;;;;13.40;99.90;;;;;;7323304;19;9357;-82
2023/07/26 03:55:38;;;;;;;;;;;13.40;99.90;;;;;;7324276;19;9233;-82
2023/07/26 03:58:07;;;;;;;;;;;13.50;99.90;;;;;;7328354;19;9248;-83
2023/07/26 04:00:36;;;;;;;;;;;13.50;99.90;;;;;;7329748;19;9485;-83
2023/07/26 04:03:05;;;;;;;;;;;13.50;99.90;;;;;;7329737;19;9210;-82
2023/07/26 04:05:37;;;;;;;;;;;13.50;99.90;;;;;;7327240;19;9134;-82
2023/07/26 04:08:07;;;;;;;;;;;13.50;99.90;;;;;;7329133;19;9186;-82
2023/07/26 04:10:36;;;;;;;;;;;13.50;99.90;;;;;;7330414;19;9728;-83
2023/07/26 04:13:05;;;;;;;;;;;13.50;99.90;;;;;;7328665;19;9471;-82
2023/07/26 04:15:34;;;;;;;;;;;13.60;99.90;;;;;;7329913;19;9510;-82
2023/07/26 04:18:03;;;;;;;;;;;13.60;99.90;;;;;;7328055;19;9226;-82
2023/07/26 04:20:31;;;;;;;;;;;13.60;99.90;;;;;;7330785;19;9259;-82
2023/07/26 04:23:03;;;;;;;;;;;13.60;99.90;;;;;;7326152;19;10405;-82
2023/07/26 04:25:32;;;;;;;;;;;13.60;99.90;;;;;;7327599;19;9295;-82
2023/07/26 04:28:02;;;;;;;;;;;13.60;99.90;;;;;;7329162;19;9225;-82
2023/07/26 04:30:30;;;;;;;;;;;13.60;99.90;;;;;;7329493;19;9225;-82
2023/07/26 04:32:59;;;;;;;;;;;13.80;99.90;;;;;;7328205;19;9197;-81
2023/07/26 04:35:28;;;;;;;;;;;13.80;99.90;;;;;;7329845;19;10536;-83
2023/07/26 04:37:57;;;;;;;;;;;13.80;99.90;;;;;;7329054;19;10234;-82
2023/07/26 04:40:29;;;;;;;;;;;13.80;99.90;;;;;;7330523;19;9636;-82
2023/07/26 04:42:57;;;;;;;;;;;13.90;99.90;;;;;;7326402;19;10437;-82
2023/07/26 04:45:26;;;;;;;;;;;13.80;99.90;;;;;;7328139;19;9421;-82
2023/07/26 04:47:55;;;;;;;;;;;13.80;99.90;;;;;;7325459;19;9261;-82
2023/07/26 04:50:24;;;;;;;;;;;13.80;99.90;;;;;;7327863;19;9430;-82
2023/07/26 04:52:53;;;;;;;;;;;13.80;99.90;;;;;;7327686;19;9210;-82
2023/07/26 04:55:22;;;;;;;;;;;13.90;99.90;;;;;;7330145;19;9220;-82
2023/07/26 04:57:54;;;;;;;;;;;13.90;99.90;;;;;;7327946;19;9316;-83
2023/07/26 05:00:23;;;;;;;;;;;13.80;99.90;;;;;;7325973;19;9253;-82
2023/07/26 05:02:52;;;;;;;;;;;13.80;99.90;;;;;;7321504;19;9205;-82
2023/07/26 05:05:20;;;;;;;;;;;14.00;99.90;;;;;;7327146;19;9234;-82
2023/07/26 05:07:49;;;;;;;;;;;14.20;99.90;;;;;;7325205;19;9202;-82
2023/07/26 05:10:19;;;;;;;;;;;14.30;99.90;;;;;;7325452;19;9609;-82
2023/07/26 05:12:48;;;;;;;;;;;14.30;99.90;;;;;;7328766;19;8944;-82
2023/07/26 05:15:20;;;;;;;;;;;14.20;99.90;;;;;;7326023;19;9513;-82
2023/07/26 05:17:49;;;;;;;;;;;14.20;99.90;;;;;;7326534;19;9281;-82
2023/07/26 05:20:18;;;;;;;;;;;14.10;99.90;;;;;;7325847;19;9277;-82
2023/07/26 05:22:47;;;;;;;;;;;14.10;99.90;;;;;;7327923;19;9459;-81
2023/07/26 05:25:16;;;;;;;;;;;14.10;99.90;;;;;;7327269;19;9214;-82
2023/07/26 05:27:45;;;;;;;;;;;14.20;99.90;;;;;;7326879;19;10561;-82
2023/07/26 05:30:18;;;;;;;;;;;14.20;99.90;;;;;;7328268;19;9239;-82
2023/07/26 05:32:49;;;;;;;;;;;14.20;99.90;;;;;;7323255;19;10325;-81
2023/07/26 05:35:18;;;;;;;;;;;14.30;99.90;;;;;;7324549;19;9512;-82
2023/07/26 05:37:49;;;;;;;;;;;14.60;99.90;;;;;;7326900;19;9155;-82
2023/07/26 05:40:18;;;;;;;;;;;14.70;99.90;;;;;;7328167;19;9230;-82
2023/07/26 05:42:47;;;;;;;;;;;14.80;99.90;;;;;;7323479;19;9277;-82
2023/07/26 05:45:16;;;;;;;;;;;15.00;99.90;;;;;;7325055;19;9785;-82
2023/07/26 05:47:45;;;;;;;;;;;15.10;99.90;;;;;;7327067;19;9336;-82
2023/07/26 05:50:16;;;;;;;;;;;15.20;99.90;;;;;;7326389;19;9461;-82
2023/07/26 05:52:46;;;;;;;;;;;15.20;99.90;;;;;;7326012;19;9288;-82
2023/07/26 05:55:15;;;;;;;;;;;15.10;99.90;;;;;;7324415;19;9353;-81
2023/07/26 05:57:44;;;;;;;;;;;15.20;99.90;;;;;;7324484;19;9552;-78
2023/07/26 06:00:17;;;;;;;;;;;15.10;99.90;;;;;;7326659;19;9222;-78
2023/07/26 06:02:46;;;;;;;;;;;15.00;99.90;;;;;;7326294;19;9515;-83
2023/07/26 06:05:18;;;;;;;;;;;15.10;99.90;;;;;;7324641;19;9209;-78
2023/07/26 06:07:48;;;;;;;;;;;15.20;99.90;;;;;;7326225;19;9222;-81
2023/07/26 06:10:16;;;;;;;;;;;15.10;99.90;;;;;;7321520;19;9519;-82
2023/07/26 06:12:45;;;;;;;;;;;15.20;99.90;;;;;;7326078;19;9246;-83
2023/07/26 06:15:14;;;;;;;;;;;15.10;99.90;;;;;;7323602;19;9443;-88
2023/07/26 06:17:43;;;;;;;;;;;15.20;99.90;;;;;;7326488;19;9469;-91
2023/07/26 06:20:14;;;;;;;;;;;15.20;99.90;;;;;;7325783;19;9272;-89
2023/07/26 06:22:47;;;;;;;;;;;15.50;99.90;;;;;;7322735;19;10058;-82
2023/07/26 06:25:16;;;;;;;;;;;15.60;99.90;;;;;;7321121;19;9186;-82
2023/07/26 06:27:45;;;;;;;;;;;15.60;99.90;;;;;;7319009;19;11029;-81
2023/07/26 06:30:15;;;;;;;;;;;15.70;99.90;;;;;;7321269;19;9239;-81
2023/07/26 06:32:44;;;;;;;;;;;15.70;99.90;;;;;;7324035;19;9240;-82
2023/07/26 06:35:13;;;;;;;;;;;15.90;99.90;;;;;;7323750;19;9334;-81
2023/07/26 06:37:45;;;;;;;;;;;15.80;99.90;;;;;;7325816;19;9415;-81
2023/07/26 06:40:15;;;;;;;;;;;15.80;99.90;;;;;;7326111;19;9405;-82
2023/07/26 06:42:44;;;;;;;;;;;15.80;99.90;;;;;;7325887;19;9570;-82
2023/07/26 06:45:13;;;;;;;;;;;15.60;99.90;;;;;;7317683;19;9168;-82
2023/07/26 06:47:42;;;;;;;;;;;15.70;99.90;;;;;;7319782;19;10996;-81
2023/07/26 06:50:11;;;;;;;;;;;15.90;99.90;;;;;;7321399;19;9540;-81
2023/07/26 06:52:40;;;;;;;;;;;15.90;99.90;;;;;;7324325;19;9165;-81
2023/07/26 06:55:12;;;;;;;;;;;15.90;99.90;;;;;;7325563;19;9198;-81
2023/07/26 06:57:41;;;;;;;;;;;15.90;99.90;;;;;;7324649;19;9259;-82
2023/07/26 07:00:12;;;;;;;;;;;15.90;99.90;;;;;;7327030;19;9523;-82
2023/07/26 07:02:41;;;;;;;;;;;15.70;99.90;;;;;;7324974;19;9178;-81
2023/07/26 07:05:11;;;;;;;;;;;15.50;99.90;;;;;;7324589;19;9125;-81
2023/07/26 07:07:40;;;;;;;;;;;15.40;99.90;;;;;;7324813;19;9245;-82
2023/07/26 07:10:15;;;;;;;;;;;15.40;99.90;;;;;;7323887;19;10200;-81
2023/07/26 07:12:44;;;;;;;;;;;15.40;99.90;;;;;;7324793;19;9198;-81
2023/07/26 07:15:13;;;;;;;;;;;15.60;99.90;;;;;;7323082;19;9232;-82
2023/07/26 07:17:42;;;;;;;;;;;15.90;99.90;;;;;;7324461;19;9952;-81
2023/07/26 07:20:12;;;;;;;;;;;16.30;99.90;;;;;;7324030;19;9233;-81
2023/07/26 07:22:41;;;;;;;;;;;16.60;99.90;;;;;;7323485;19;9583;-81
2023/07/26 07:25:13;;;;;;;;;;;17.00;99.90;;;;;;7324248;19;9270;-81
2023/07/26 07:27:42;;;;;;;;;;;17.50;99.90;;;;;;7324879;19;9216;-81
2023/07/26 07:30:13;;;;;;;;;;;18.00;99.90;;;;;;7324648;19;9186;-81
2023/07/26 07:32:42;;;;;;;;;;;18.30;99.90;;;;;;7324795;19;9465;-81
2023/07/26 07:35:11;;;;;;;;;;;18.50;99.90;;;;;;7323030;19;9324;-81
2023/07/26 07:37:40;;;;;;;;;;;18.50;99.90;;;;;;7323614;19;9222;-81
2023/07/26 07:40:13;;;;;;;;;;;18.30;99.90;;;;;;7321738;19;10688;-81
2023/07/26 07:42:42;;;;;;;;;;;18.00;99.90;;;;;;7323741;19;9697;-81
2023/07/26 07:45:12;;;;;;;;;;;18.10;99.90;;;;;;7321486;19;9263;-82
2023/07/26 07:47:41;;;;;;;;;;;18.70;99.90;;;;;;7322864;19;9223;-82
2023/07/26 07:50:11;;;;;;;;;;;19.10;99.90;;;;;;7323172;19;9237;-81
2023/07/26 07:52:41;;;;;;;;;;;19.50;99.90;;;;;;7322689;19;9225;-82
2023/07/26 07:55:13;;;;;;;;;;;19.80;99.90;;;;;;7322848;19;10214;-81
2023/07/26 07:57:42;;;;;;;;;;;20.00;99.90;;;;;;7320397;19;9544;-81
2023/07/26 08:00:12;;;;;;;;;;;20.20;99.90;;;;;;7322621;19;9210;-81
2023/07/26 08:02:41;;;;;;;;;;;20.50;99.90;;;;;;7322401;19;9396;-81
2023/07/26 08:05:12;;;;;;;;;;;20.70;99.90;;;;;;7320140;19;9263;-80
2023/07/26 08:07:40;;;;;;;;;;;20.80;99.90;;;;;;7320938;19;9471;-81
2023/07/26 08:10:13;;;;;;;;;;;20.70;99.90;;;;;;7318297;19;10593;-80
2023/07/26 08:12:41;;;;;;;;;;;20.60;99.90;;;;;;7319234;19;11521;-80
2023/07/26 08:15:11;;;;;;;;;;;20.50;99.90;;;;;;7322121;19;9472;-82
2023/07/26 08:17:40;;;;;;;;;;;20.50;99.90;;;;;;7323734;19;10153;-80
2023/07/26 08:20:11;;;;;;;;;;;20.40;99.90;;;;;;7322221;19;9197;-80
2023/07/26 08:22:40;;;;;;;;;;;20.30;99.90;;;;;;7319369;19;9225;-81
2023/07/26 08:25:13;;;;;;;;;;;20.50;99.90;;;;;;7320309;19;9501;-81
2023/07/26 08:27:42;;;;;;;;;;;20.70;99.90;;;;;;7319123;19;9158;-81
2023/07/26 08:30:12;;;;;;;;;;;20.90;99.90;;;;;;7322483;19;9277;-81
2023/07/26 08:32:41;;;;;;;;;;;21.00;99.90;;;;;;7321608;19;9436;-81
2023/07/26 08:35:11;;;;;;;;;;;21.10;99.90;;;;;;7320366;19;9717;-81
2023/07/26 08:37:40;;;;;;;;;;;21.10;99.90;;;;;;7321197;19;9536;-81
2023/07/26 08:40:13;;;;;;;;;;;21.00;99.90;;;;;;7319637;19;9133;-81
2023/07/26 08:42:42;;;;;;;;;;;20.90;99.90;;;;;;7324428;19;9316;-81
2023/07/26 08:45:12;;;;;;;;;;;20.80;99.90;;;;;;7328546;19;9407;-81
2023/07/26 08:47:43;;;;;;;;;;;20.70;99.90;;;;;;7327021;19;9460;-81
2023/07/26 08:50:12;;;;;;;;;;;20.60;99.90;;;;;;7327423;19;10345;-81
2023/07/26 08:52:43;;;;;;;;;;;20.40;99.90;;;;;;7324840;19;9208;-81
2023/07/26 08:55:16;;;;;;;;;;;20.30;99.90;;;;;;7322037;19;9108;-82
2023/07/26 08:57:45;;;;;;;;;;;20.30;99.90;;;;;;7325940;19;9186;-81
2023/07/26 09:00:15;;;;;;;;;;;20.30;99.90;;;;;;7326840;19;9217;-81
2023/07/26 09:02:49;;;;;;;;;;;20.20;99.90;;;;;;7326470;19;9341;-81
2023/07/26 09:05:17;;;;;;;;;;;20.20;99.90;;;;;;7326493;19;9373;-81
2023/07/26 09:07:49;;;;;;;;;;;20.10;99.90;;;;;;7325075;19;9585;-81
2023/07/26 09:10:25;;;;;;;;;;;20.20;99.90;;;;;;7330270;19;9532;-81
2023/07/26 09:12:54;;;;;;;;;;;20.30;99.90;;;;;;7330507;19;9414;-80
2023/07/26 09:15:24;;;;;;;;;;;20.30;99.90;;;;;;7324819;19;10320;-81
2023/07/26 09:17:53;;;;;;;;;;;20.40;99.90;;;;;;7330351;19;9509;-81
2023/07/26 09:20:24;;;;;;;;;;;20.60;99.90;;;;;;7326685;19;9241;-80
2023/07/26 09:23:01;;;;;;;;;;;20.60;99.90;;;;;;7328819;19;9238;-81
2023/07/26 09:25:40;;;;;;;;;;;20.60;99.90;;;;;;7326031;19;9118;-81
2023/07/26 09:28:10;;;;;;;;;;;20.70;99.90;;;;;;7323511;19;9314;-81
2023/07/26 09:30:41;;;;;;;;;;;20.70;99.90;;;;;;7324261;19;10700;-82
2023/07/26 09:33:13;;;;;;;;;;;20.70;99.90;;;;;;7324127;19;9434;-82
2023/07/26 09:35:47;;;;;;;;;;;20.60;99.50;;;;;;7323211;19;9539;-81
2023/07/26 09:38:18;;;;;;;;;;;20.60;99.90;;;;;;7325608;19;9212;-82
2023/07/26 09:40:50;;;;;;;;;;;20.60;99.90;;;;;;7317169;19;9241;-81
2023/07/26 09:43:31;;;;;;;;;;;20.60;99.60;;;;;;7325806;19;9234;-81
2023/07/26 09:46:04;;;;;;;;;;;20.50;99.90;;;;;;7325954;19;9208;-81
2023/07/26 09:48:33;;;;;;;;;;;20.60;99.90;;;;;;7325234;19;9464;-81
2023/07/26 09:51:08;;;;;;;;;;;20.70;99.90;;;;;;7325912;19;9175;-82
2023/07/26 09:53:42;;;;;;;;;;;20.80;99.90;;;;;;7320307;19;9167;-81
2023/07/26 09:56:14;;;;;;;;;;;20.90;99.40;;;;;;7325883;19;9236;-81
2023/07/26 09:58:48;;;;;;;;;;;21.00;97.90;;;;;;7325828;19;9262;-81
2023/07/26 10:01:20;;;;;;;;;;;21.10;99.00;;;;;;7323745;19;8948;-82
2023/07/26 10:03:54;;;;;;;;;;;21.20;97.90;;;;;;7325506;19;9554;-82
2023/07/26 10:06:27;;;;;;;;;;;21.20;97.20;;;;;;7322804;19;9323;-82
2023/07/26 10:08:57;;;;;;;;;;;21.10;94.90;;;;;;7317637;19;9323;-87
2023/07/26 10:11:31;;;;;;;;;;;20.90;98.60;;;;;;7318829;19;9349;-85
2023/07/26 10:14:02;;;;;;;;;;;20.90;98.70;;;;;;7320270;19;10316;-86
2023/07/26 10:16:32;;;;;;;;;;;20.90;97.80;;;;;;7322013;19;9268;-81
2023/07/26 10:19:05;;;;;;;;;;;20.90;97.00;;;;;;7324800;19;9213;-76
2023/07/26 10:21:35;;;;;;;;;;;21.00;96.70;;;;;;7320457;19;9268;-82
2023/07/26 10:24:06;;;;;;;;;;;21.10;97.20;;;;;;7327288;19;9217;-83
2023/07/26 10:26:40;;;;;;;;;;;21.30;96.50;;;;;;7319673;19;9189;-82
2023/07/26 10:29:09;;;;;;;;;;;21.40;95.20;;;;;;7324301;19;9242;-80
2023/07/26 10:31:38;;;;;;;;;;;21.50;95.90;;;;;;7322133;19;9239;-81
2023/07/26 10:34:09;;;;;;;;;;;21.40;95.10;;;;;;7326034;19;9584;-80
2023/07/26 10:36:39;;;;;;;;;;;21.40;95.40;;;;;;7324576;19;9408;-80
2023/07/26 10:39:11;;;;;;;;;;;21.50;93.60;;;;;;7320165;19;9475;-79
2023/07/26 10:41:51;;;;;;;;;;;21.60;93.00;;;;;;7324414;19;9473;-78
2023/07/26 10:44:20;;;;;;;;;;;21.60;93.60;;;;;;7323759;19;11055;-80
2023/07/26 10:46:55;;;;;;;;;;;21.70;93.90;;;;;;7317517;19;9254;-80
2023/07/26 10:49:28;;;;;;;;;;;21.80;94.10;;;;;;7325464;19;9189;-80
2023/07/26 10:52:00;;;;;;;;;;;22.00;93.90;;;;;;7324995;19;9177;-81
2023/07/26 10:54:37;;;;;;;;;;;21.90;91.40;;;;;;7325987;19;9226;-76
2023/07/26 10:57:20;;;;;;;;;;;21.70;92.40;;;;;;7323192;19;9502;-78
2023/07/26 11:00:04;;;;;;;;;;;21.40;92.20;;;;;;7324587;19;9464;-79
2023/07/26 11:02:43;;;;;;;;;;;21.10;93.10;;;;;;7325267;19;9197;-81
2023/07/26 11:05:15;;;;;;;;;;;20.90;94.10;;;;;;7324770;19;9223;-80
2023/07/26 11:07:58;;;;;;;;;;;20.80;93.60;;;;;;7317665;19;9185;-83
2023/07/26 11:10:31;;;;;;;;;;;20.80;93.90;;;;;;7319714;19;9004;-80
2023/07/26 11:13:14;;;;;;;;;;;20.80;94.10;;;;;;7322936;19;9056;-80
2023/07/26 11:15:44;;;;;;;;;;;20.70;93.80;;;;;;7320014;19;9324;-80
2023/07/26 11:18:16;;;;;;;;;;;20.90;94.70;;;;;;7318914;19;10205;-80
2023/07/26 11:20:48;;;;;;;;;;;21.20;93.40;;;;;;7323709;19;9180;-80
2023/07/26 11:23:19;;;;;;;;;;;21.40;91.70;;;;;;7319760;19;9220;-80
2023/07/26 11:25:48;;;;;;;;;;;21.50;92.20;;;;;;7319401;19;9486;-81
2023/07/26 11:28:21;;;;;;;;;;;21.50;91.40;;;;;;7317777;19;9198;-80
2023/07/26 11:30:52;;;;;;;;;;;21.60;91.20;;;;;;7321389;19;9535;-81
2023/07/26 11:33:31;;;;;;;;;;;21.20;87.20;;;;;;7323887;19;9071;-81
2023/07/26 11:36:01;;;;;;;;;;;20.90;90.50;;;;;;7314789;19;9304;-81
2023/07/26 11:38:31;;;;;;;;;;;20.80;91.40;;;;;;7317581;19;9501;-81
2023/07/26 11:41:01;;;;;;;;;;;20.50;92.20;;;;;;7315189;19;9079;-81
2023/07/26 11:43:34;;;;;;;;;;;20.30;93.80;;;;;;7321113;19;9266;-81
2023/07/26 11:46:03;;;;;;;;;;;20.20;94.10;;;;;;7317201;19;9632;-81
2023/07/26 11:48:32;;;;;;;;;;;20.10;93.60;;;;;;7307056;19;10056;-80
2023/07/26 11:51:03;;;;;;;;;;;20.10;94.90;;;;;;7320104;19;8944;-81
2023/07/26 11:53:34;;;;;;;;;;;20.20;96.00;;;;;;7322607;19;9346;-82
2023/07/26 11:56:04;;;;;;;;;;;19.10;97.00;;;;;;7321010;19;9195;-81
2023/07/26 11:58:38;;;;;;;;;;;18.00;99.90;;;;;;7321109;19;9253;-81
2023/07/26 12:01:08;;;;;;;;;;;17.10;99.90;;;;;;7323627;19;9538;-81
2023/07/26 12:03:38;;;;;;;;;;;16.40;99.90;;;;;;7321806;19;9447;-80
2023/07/26 12:06:09;;;;;;;;;;;16.00;99.90;;;;;;7318822;19;9258;-81
2023/07/26 12:08:39;;;;;;;;;;;15.70;99.90;;;;;;7319456;19;9163;-81
2023/07/26 12:11:10;;;;;;;;;;;15.40;99.90;;;;;;7320891;19;9202;-81
2023/07/26 12:13:42;;;;;;;;;;;15.30;99.90;;;;;;7323795;19;9616;-81
2023/07/26 12:16:11;;;;;;;;;;;15.30;99.90;;;;;;7317523;19;9461;-81
2023/07/26 12:18:53;;;;;;;;;;;15.30;99.90;;;;;;7327298;19;10375;-81
2023/07/26 12:21:26;;;;;;;;;;;15.50;99.90;;;;;;7328561;19;9751;-81
2023/07/26 12:23:57;;;;;;;;;;;15.80;99.90;;;;;;7327434;19;10381;-81
2023/07/26 12:26:29;;;;;;;;;;;16.10;99.90;;;;;;7329358;19;9214;-81
2023/07/26 12:29:03;;;;;;;;;;;16.50;99.90;;;;;;7326861;19;9181;-82
2023/07/26 12:31:33;;;;;;;;;;;16.70;99.90;;;;;;7328752;19;9277;-82
2023/07/26 12:34:05;;;;;;;;;;;17.00;99.90;;;;;;7325917;19;9166;-82
2023/07/26 12:36:47;;;;;;;;;;;17.40;99.90;;;;;;7323244;19;9842;-82
2023/07/26 12:39:19;;;;;;;;;;;17.90;99.90;;;;;;7318251;19;9556;-81
2023/07/26 12:41:48;;;;;;;;;;;18.10;99.90;;;;;;7326593;19;8944;-81
2023/07/26 12:44:20;;;;;;;;;;;18.10;99.90;;;;;;7324173;19;9534;-81
2023/07/26 12:46:49;;;;;;;;;;;18.20;99.90;;;;;;7325533;19;9095;-79
2023/07/26 12:49:18;;;;;;;;;;;18.20;99.90;;;;;;7323837;19;9398;-81
2023/07/26 12:51:48;;;;;;;;;;;18.40;99.90;;;;;;7326674;19;9234;-82
2023/07/26 12:54:17;;;;;;;;;;;18.80;99.90;;;;;;7322830;19;9161;-82
2023/07/26 12:56:46;;;;;;;;;;;19.10;99.90;;;;;;7320195;19;9261;-82
2023/07/26 12:59:15;;;;;;;;;;;19.20;99.90;;;;;;7323421;19;9598;-82
2023/07/26 13:01:47;;;;;;;;;;;19.30;99.90;;;;;;7319715;19;9351;-82
2023/07/26 13:04:16;;;;;;;;;;;19.40;99.90;;;;;;7324070;19;9307;-82
2023/07/26 13:06:45;;;;;;;;;;;19.60;99.90;;;;;;7321626;19;9486;-81
2023/07/26 13:09:14;;;;;;;;;;;19.80;99.90;;;;;;7319220;19;10130;-81
2023/07/26 13:11:44;;;;;;;;;;;20.00;99.90;;;;;;7326441;19;9493;-82
2023/07/26 13:14:13;;;;;;;;;;;20.10;99.90;;;;;;7326762;19;9300;-82
2023/07/26 13:16:42;;;;;;;;;;;20.40;99.90;;;;;;7316280;19;9462;-82
2023/07/26 13:19:13;;;;;;;;;;;20.50;99.70;;;;;;7317745;19;10466;-82
2023/07/26 13:21:42;;;;;;;;;;;20.70;98.50;;;;;;7323109;19;10485;-82
2023/07/26 13:24:11;;;;;;;;;;;20.70;98.70;;;;;;7323019;19;9332;-79
2023/07/26 13:26:40;;;;;;;;;;;20.80;97.60;;;;;;7325749;19;9241;-81
2023/07/26 13:29:09;;;;;;;;;;;20.80;97.20;;;;;;7327060;19;9394;-82
2023/07/26 13:31:38;;;;;;;;;;;20.70;97.00;;;;;;7329675;19;9225;-82
2023/07/26 13:34:07;;;;;;;;;;;20.70;97.40;;;;;;7325440;19;9186;-82
2023/07/26 13:36:39;;;;;;;;;;;20.90;96.00;;;;;;7319572;19;9387;-79
2023/07/26 13:39:08;;;;;;;;;;;20.90;94.30;;;;;;7323975;19;9237;-78
2023/07/26 13:41:38;;;;;;;;;;;21.00;95.40;;;;;;7318668;19;9288;-78
2023/07/26 13:44:07;;;;;;;;;;;20.90;95.80;;;;;;7315907;19;9241;-80
2023/07/26 13:46:36;;;;;;;;;;;21.00;95.90;;;;;;7324471;19;9441;-80
2023/07/26 13:49:06;;;;;;;;;;;21.00;96.00;;;;;;7324907;19;8945;-80
2023/07/26 13:51:38;;;;;;;;;;;20.80;96.00;;;;;;7324911;19;9583;-80
2023/07/26 13:54:07;;;;;;;;;;;20.70;95.00;;;;;;7327246;19;9178;-80
2023/07/26 13:56:36;;;;;;;;;;;20.30;94.20;;;;;;7325576;19;9223;-80
2023/07/26 13:59:05;;;;;;;;;;;20.00;94.30;;;;;;7324899;19;9174;-80
2023/07/26 14:01:34;;;;;;;;;;;19.90;95.10;;;;;;7327663;19;10158;-80
2023/07/26 14:04:04;;;;;;;;;;;20.20;96.60;;;;;;7326808;19;9209;-79
2023/07/26 14:06:34;;;;;;;;;;;20.20;97.00;;;;;;7323358;19;9215;-80
2023/07/26 14:09:05;;;;;;;;;;;20.20;96.70;;;;;;7324066;19;9128;-80
2023/07/26 14:11:35;;;;;;;;;;;20.50;97.10;;;;;;7326632;19;9528;-79
2023/07/26 14:14:04;;;;;;;;;;;20.70;96.70;;;;;;7324904;19;9791;-80
2023/07/26 14:16:33;;;;;;;;;;;20.80;96.60;;;;;;7325208;19;9478;-79
2023/07/26 14:19:02;;;;;;;;;;;21.00;96.30;;;;;;7326231;19;9487;-80
2023/07/26 14:21:31;;;;;;;;;;;21.20;95.50;;;;;;7325258;19;9127;-79
2023/07/26 14:24:00;;;;;;;;;;;21.30;95.00;;;;;;7326218;19;9307;-80
2023/07/26 14:26:33;;;;;;;;;;;21.50;94.60;;;;;;7324574;19;9232;-80
2023/07/26 14:29:03;;;;;;;;;;;21.60;93.80;;;;;;7325342;19;9183;-80
2023/07/26 14:31:32;;;;;;;;;;;21.50;92.40;;;;;;7324286;19;9320;-80
2023/07/26 14:34:01;;;;;;;;;;;21.10;92.00;;;;;;7315585;19;9450;-81
2023/07/26 14:36:30;;;;;;;;;;;20.80;93.10;;;;;;7325848;19;9178;-80
2023/07/26 14:38:59;;;;;;;;;;;20.70;93.80;;;;;;7325444;19;9376;-83
2023/07/26 14:41:28;;;;;;;;;;;20.70;94.50;;;;;;7313693;19;9201;-80
2023/07/26 14:44:00;;;;;;;;;;;20.80;94.70;;;;;;7312275;19;9466;-80
2023/07/26 14:46:29;;;;;;;;;;;21.00;94.10;;;;;;7321118;19;9257;-81